createdAt,value
2022-08-03T00:01:37.081Z,100437.66
2022-08-03T00:04:39.933Z,100439.53
2022-08-03T00:07:42.499Z,100428.38
2022-08-03T00:10:45.484Z,100426.03
2022-08-03T00:13:48.006Z,100432.47
2022-08-03T00:16:50.737Z,100431.19
2022-08-03T00:19:53.346Z,100433.75
2022-08-03T00:22:56.215Z,100437.03
2022-08-03T00:25:58.691Z,100443.47
2022-08-03T00:29:01.632Z,100448.19
2022-08-03T00:32:04.272Z,100450.97
2022-08-03T00:35:09.852Z,100449.78
2022-08-03T00:38:15.476Z,100450.53
2022-08-03T00:41:18.268Z,100454.75
2022-08-03T00:44:20.729Z,100448.03
2022-08-03T00:47:23.526Z,100458.91
2022-08-03T00:50:28.884Z,100448.62
2022-08-03T00:53:32.473Z,100455.53
2022-08-03T00:56:35.970Z,100451.66
2022-08-03T00:59:39.706Z,100456.91
2022-08-03T01:02:42.394Z,100454.69
2022-08-03T01:06:17.470Z,100463.19
2022-08-03T01:09:27.123Z,100468.88
2022-08-03T01:12:46.202Z,100457.22
2022-08-03T01:15:48.694Z,100465.03
2022-08-03T01:19:08.692Z,100465.09
2022-08-03T01:22:23.570Z,100469.78
2022-08-03T01:25:48.357Z,100469.62
2022-08-03T01:29:37.200Z,100470.31
2022-08-03T01:33:01.640Z,100476.94
2022-08-03T01:36:13.783Z,100473.31
2022-08-03T01:39:19.317Z,100476.69
2022-08-03T01:42:24.069Z,100484.34
2022-08-03T01:45:28.410Z,100481.75
2022-08-03T01:48:39.701Z,100481.34
2022-08-03T01:51:57.680Z,100478.50
2022-08-03T01:55:08.368Z,100471.31
2022-08-03T01:58:15.055Z,100472.56
2022-08-03T02:01:21.988Z,100469.31
2022-08-03T02:04:26.333Z,100468.50
2022-08-03T02:07:30.564Z,100475.31
2022-08-03T02:10:36.295Z,100467.16
2022-08-03T02:13:40.395Z,100461.97
2022-08-03T02:16:45.986Z,100466.97
2022-08-03T02:19:50.645Z,100467.87
2022-08-03T02:22:54.046Z,100469.81
2022-08-03T02:26:01.888Z,100468.16
2022-08-03T02:29:13.855Z,100468.84
2022-08-03T02:32:20.478Z,100469.50
2022-08-03T02:35:26.334Z,100462.91
2022-08-03T02:38:34.454Z,100461.09
2022-08-03T02:41:44.304Z,100471.03
2022-08-03T02:44:50.396Z,100468.34
2022-08-03T02:47:58.242Z,100476.28
2022-08-03T02:51:04.026Z,100476.38
2022-08-03T02:54:09.537Z,100479.91
2022-08-03T02:57:14.205Z,100473.47
2022-08-03T03:00:28.170Z,100479.66
2022-08-03T03:03:35.288Z,100477.44
2022-08-03T03:06:48.421Z,100484.06
2022-08-03T03:09:52.224Z,100479.59
2022-08-03T03:12:58.696Z,100481.25
2022-08-03T03:16:03.825Z,100474.09
2022-08-03T03:19:08.752Z,100475.47
2022-08-03T03:22:12.633Z,100483.44
2022-08-03T03:25:16.670Z,100480.38
2022-08-03T03:28:19.651Z,100479.38
2022-08-03T03:31:22.986Z,100480.69
2022-08-03T03:34:25.746Z,100478.41
2022-08-03T03:37:28.500Z,100475.62
2022-08-03T03:40:31.781Z,100482.13
2022-08-03T03:43:34.683Z,100483.81
2022-08-03T03:46:38.880Z,100484.84
2022-08-03T03:49:42.863Z,100488.31
2022-08-03T03:52:45.422Z,100485.16
2022-08-03T03:55:57.812Z,100490.31
2022-08-03T03:59:04.811Z,100489.19
2022-08-03T04:02:09.255Z,100486.50
2022-08-03T04:05:31.615Z,100490.78
2022-08-03T04:08:52.796Z,100488.41
2022-08-03T04:12:01.035Z,100494.81
2022-08-03T04:15:04.585Z,100502.09
2022-08-03T04:18:12.001Z,100504.94
2022-08-03T04:21:17.964Z,100506.97
2022-08-03T04:24:22.138Z,100512.09
2022-08-03T04:27:37.256Z,100517.31
2022-08-03T04:30:47.532Z,100521.44
2022-08-03T04:33:52.837Z,100514.41
2022-08-03T04:36:59.790Z,100513.69
2022-08-03T04:40:06.061Z,100520.78
2022-08-03T04:43:11.428Z,100517.03
2022-08-03T04:46:15.351Z,100517.34
2022-08-03T04:49:20.095Z,100520.31
2022-08-03T04:52:22.815Z,100520.84
2022-08-03T04:55:27.584Z,100526.78
2022-08-03T04:58:30.269Z,100536.59
2022-08-03T05:01:33.093Z,100543.81
2022-08-03T05:04:35.783Z,100545.69
2022-08-03T05:07:38.622Z,100549.09
2022-08-03T05:10:41.644Z,100547.84
2022-08-03T05:13:45.452Z,100552.91
2022-08-03T05:16:47.934Z,100559.13
2022-08-03T05:19:50.907Z,100554.34
2022-08-03T05:22:53.545Z,100557.12
2022-08-03T05:25:56.766Z,100558.91
2022-08-03T05:28:59.658Z,100563.94
2022-08-03T05:32:08.090Z,100566.00
2022-08-03T05:35:55.835Z,100569.53
2022-08-03T05:38:34.759Z,100570.03
2022-08-03T05:41:37.986Z,100569.56
2022-08-03T05:44:42.164Z,100571.66
2022-08-03T05:47:45.475Z,100574.91
2022-08-03T05:50:48.475Z,100570.50
2022-08-03T05:53:50.931Z,100573.41
2022-08-03T05:56:53.649Z,100581.84
2022-08-03T05:59:58.785Z,100584.88
2022-08-03T06:03:02.453Z,100581.59
2022-08-03T06:06:05.444Z,100583.19
2022-08-03T06:09:08.031Z,100584.62
2022-08-03T06:12:14.058Z,100592.34
2022-08-03T06:15:18.763Z,100587.34
2022-08-03T06:18:21.561Z,100589.09
2022-08-03T06:21:24.044Z,100599.00
2022-08-03T06:24:30.152Z,100592.53
2022-08-03T06:27:37.350Z,100593.84
2022-08-03T06:30:41.717Z,100593.78
2022-08-03T06:34:31.297Z,100599.84
2022-08-03T06:37:07.113Z,100602.34
2022-08-03T06:40:13.977Z,100597.94
2022-08-03T06:43:17.096Z,100594.22
2022-08-03T06:46:20.418Z,100604.44
2022-08-03T06:49:23.258Z,100601.72
2022-08-03T06:52:37.984Z,100599.91
2022-08-03T06:55:42.313Z,100606.87
2022-08-03T06:58:46.971Z,100595.72
2022-08-03T07:01:49.981Z,100601.28
2022-08-03T07:04:52.588Z,100608.53
2022-08-03T07:07:57.220Z,100605.81
2022-08-03T07:10:59.951Z,100599.25
2022-08-03T07:14:02.858Z,100600.50
2022-08-03T07:17:11.913Z,100597.13
2022-08-03T07:20:17.378Z,100601.72
2022-08-03T07:23:19.865Z,100607.06
2022-08-03T07:26:22.707Z,100611.53
2022-08-03T07:29:25.251Z,100610.16
2022-08-03T07:32:31.307Z,100610.91
2022-08-03T07:35:34.084Z,100611.88
2022-08-03T07:38:37.176Z,100607.09
2022-08-03T07:41:39.779Z,100609.16
2022-08-03T07:44:44.764Z,100602.31
2022-08-03T07:47:53.619Z,100599.06
2022-08-03T07:50:57.171Z,100602.00
2022-08-03T07:54:00.891Z,100606.16
2022-08-03T07:57:03.969Z,100604.91
2022-08-03T08:00:12.584Z,100599.81
2022-08-03T08:03:15.982Z,100593.06
2022-08-03T08:06:18.545Z,100591.41
2022-08-03T08:09:21.411Z,100598.75
2022-08-03T08:12:23.963Z,100599.94
2022-08-03T08:15:26.804Z,100599.84
2022-08-03T08:18:32.111Z,100600.59
2022-08-03T08:21:53.199Z,100593.84
2022-08-03T08:25:04.464Z,100592.53
2022-08-03T08:28:29.133Z,100597.13
2022-08-03T08:31:30.192Z,100591.62
2022-08-03T08:34:33.047Z,100592.50
2022-08-03T08:37:35.797Z,100590.59
2022-08-03T08:40:40.485Z,100588.78
2022-08-03T08:43:43.789Z,100599.06
2022-08-03T08:46:48.061Z,100587.66
2022-08-03T08:50:08.920Z,100591.47
2022-08-03T08:53:18.158Z,100591.41
2022-08-03T08:56:25.833Z,100589.81
2022-08-03T08:59:48.275Z,100596.84
2022-08-03T09:02:53.063Z,100587.62
2022-08-03T09:05:56.494Z,100584.91
2022-08-03T09:08:59.326Z,100582.03
2022-08-03T09:12:27.179Z,100582.53
2022-08-03T09:15:28.335Z,100574.19
2022-08-03T09:18:32.580Z,100571.41
2022-08-03T09:21:35.762Z,100576.47
2022-08-03T09:25:21.684Z,100573.75
2022-08-03T09:29:01.491Z,100577.00
2022-08-03T09:31:46.888Z,100568.75
2022-08-03T09:34:55.337Z,100572.53
2022-08-03T09:38:26.283Z,100569.47
2022-08-03T09:41:29.625Z,100560.13
2022-08-03T09:44:43.532Z,100566.88
2022-08-03T09:47:46.083Z,100555.91
2022-08-03T09:50:56.967Z,100555.13
2022-08-03T09:54:04.964Z,100553.16
2022-08-03T09:57:21.229Z,100545.28
2022-08-03T10:00:24.839Z,100554.12
2022-08-03T10:03:30.339Z,100543.00
2022-08-03T10:06:33.453Z,100536.63
2022-08-03T10:09:37.939Z,100540.84
2022-08-03T10:12:41.878Z,100531.34
2022-08-03T10:16:22.022Z,100535.19
2022-08-03T10:19:09.792Z,100532.19
2022-08-03T10:22:27.516Z,100531.69
2022-08-03T10:25:32.918Z,100525.16
2022-08-03T10:28:45.066Z,100523.72
2022-08-03T10:31:54.522Z,100526.09
2022-08-03T10:35:18.942Z,100519.47
2022-08-03T10:38:32.947Z,100507.34
2022-08-03T10:41:42.633Z,100514.00
2022-08-03T10:44:45.344Z,100502.66
2022-08-03T10:47:49.843Z,100505.59
2022-08-03T10:50:53.212Z,100499.22
2022-08-03T10:53:55.972Z,100497.97
2022-08-03T10:57:19.181Z,100498.13
2022-08-03T11:00:49.859Z,100492.78
2022-08-03T11:03:52.437Z,100490.19
2022-08-03T11:07:18.355Z,100471.19
2022-08-03T11:10:31.850Z,100479.81
2022-08-03T11:13:34.804Z,100469.75
2022-08-03T11:16:41.605Z,100480.28
2022-08-03T11:19:57.023Z,100467.66
2022-08-03T11:23:01.764Z,100467.16
2022-08-03T11:26:19.162Z,100464.41
2022-08-03T11:29:30.242Z,100462.47
2022-08-03T11:32:48.486Z,100460.59
2022-08-03T11:36:02.054Z,100455.19
2022-08-03T11:39:16.852Z,100447.81
2022-08-03T11:42:23.097Z,100448.78
2022-08-03T11:45:26.061Z,100452.28
2022-08-03T11:48:34.932Z,100448.84
2022-08-03T11:51:39.878Z,100438.88
2022-08-03T11:54:43.350Z,100436.84
2022-08-03T11:59:18.813Z,100437.06
2022-08-03T12:01:11.481Z,100442.44
2022-08-03T12:04:16.258Z,100438.28
2022-08-03T12:07:25.067Z,100424.47
2022-08-03T12:10:48.761Z,100427.63
2022-08-03T12:14:44.309Z,100424.00
2022-08-03T12:17:14.257Z,100429.25
2022-08-03T12:20:34.793Z,100425.97
2022-08-03T12:23:38.782Z,100426.09
2022-08-03T12:26:58.474Z,100416.59
2022-08-03T12:30:04.680Z,100414.66
2022-08-03T12:33:17.556Z,100403.22
2022-08-03T12:36:22.013Z,100407.91
2022-08-03T12:39:27.550Z,100400.59
2022-08-03T12:42:35.927Z,100398.44
2022-08-03T12:45:38.783Z,100394.34
2022-08-03T12:49:11.406Z,100387.69
2022-08-03T12:52:14.017Z,100382.19
2022-08-03T12:55:20.727Z,100384.81
2022-08-03T12:58:36.445Z,100378.00
2022-08-03T13:01:55.313Z,100383.94
2022-08-03T13:05:00.176Z,100376.44
2022-08-03T13:08:03.224Z,100373.41
2022-08-03T13:11:19.125Z,100375.72
2022-08-03T13:14:23.676Z,100370.81
2022-08-03T13:17:27.490Z,100362.81
2022-08-03T13:20:30.674Z,100365.78
2022-08-03T13:23:33.933Z,100364.22
2022-08-03T13:26:36.728Z,100357.75
2022-08-03T13:29:39.404Z,100358.25
2022-08-03T13:32:42.704Z,100347.78
2022-08-03T13:35:45.217Z,100356.13
2022-08-03T13:38:48.122Z,100356.13
2022-08-03T13:41:50.774Z,100355.44
2022-08-03T13:44:53.656Z,100348.50
2022-08-03T13:47:56.268Z,100352.94
2022-08-03T13:51:02.561Z,100338.09
2022-08-03T13:54:08.366Z,100340.47
2022-08-03T13:58:04.544Z,100340.84
2022-08-03T14:00:34.739Z,100329.00
2022-08-03T14:03:37.609Z,100330.00
2022-08-03T14:06:40.184Z,100329.09
2022-08-03T14:09:48.712Z,100322.84
2022-08-03T14:12:51.296Z,100326.38
2022-08-03T14:15:55.619Z,100323.50
2022-08-03T14:18:59.081Z,100319.63
2022-08-03T14:22:06.855Z,100317.22
2022-08-03T14:25:09.964Z,100299.22
2022-08-03T14:28:13.600Z,100302.28
2022-08-03T14:32:10.943Z,100293.16
2022-08-03T14:34:38.973Z,100285.94
2022-08-03T14:37:41.605Z,100273.69
2022-08-03T14:40:50.996Z,100278.69
2022-08-03T14:44:01.707Z,100282.09
2022-08-03T14:47:05.202Z,100273.38
2022-08-03T14:50:38.635Z,100271.06
2022-08-03T14:53:31.415Z,100274.13
2022-08-03T14:56:33.955Z,100264.28
2022-08-03T14:59:55.826Z,100262.53
2022-08-03T15:02:59.337Z,100265.72
2022-08-03T15:06:02.314Z,100270.16
2022-08-03T15:09:21.737Z,100265.13
2022-08-03T15:12:26.429Z,100271.88
2022-08-03T15:15:29.285Z,100269.56
2022-08-03T15:18:32.361Z,100277.31
2022-08-03T15:21:47.257Z,100265.09
2022-08-03T15:24:50.473Z,100264.66
2022-08-03T15:28:03.320Z,100269.38
2022-08-03T15:31:07.579Z,100269.91
2022-08-03T15:34:11.802Z,100267.16
2022-08-03T15:37:23.237Z,100260.72
2022-08-03T15:40:25.971Z,100263.69
2022-08-03T15:43:28.790Z,100261.25
2022-08-03T15:46:31.342Z,100257.13
2022-08-03T15:49:35.449Z,100261.94
2022-08-03T15:52:38.282Z,100252.81
2022-08-03T15:55:41.279Z,100253.75
2022-08-03T15:59:09.356Z,100259.22
2022-08-03T16:02:06.662Z,100257.25
2022-08-03T16:05:27.788Z,100248.31
2022-08-03T16:08:48.369Z,100257.41
2022-08-03T16:11:51.165Z,100248.25
2022-08-03T16:14:54.000Z,100252.06
2022-08-03T16:17:57.327Z,100245.62
2022-08-03T16:21:00.658Z,100250.75
2022-08-03T16:24:03.790Z,100256.88
2022-08-03T16:27:37.420Z,100252.22
2022-08-03T16:30:33.831Z,100246.50
2022-08-03T16:33:36.551Z,100254.00
2022-08-03T16:36:39.349Z,100250.37
2022-08-03T16:39:42.076Z,100252.69
2022-08-03T16:42:53.817Z,100252.06
2022-08-03T16:45:56.878Z,100253.78
2022-08-03T16:48:59.980Z,100249.12
2022-08-03T16:52:02.588Z,100243.16
2022-08-03T16:55:06.709Z,100245.28
2022-08-03T16:58:12.574Z,100251.09
2022-08-03T17:01:21.931Z,100249.47
2022-08-03T17:04:28.229Z,100259.03
2022-08-03T17:07:32.177Z,100245.22
2022-08-03T17:10:38.106Z,100260.06
2022-08-03T17:13:41.749Z,100265.53
2022-08-03T17:16:52.571Z,100263.47
2022-08-03T17:19:58.459Z,100260.09
2022-08-03T17:23:34.973Z,100267.37
2022-08-03T17:26:44.800Z,100266.16
2022-08-03T17:29:50.229Z,100276.09
2022-08-03T17:32:57.464Z,100279.22
2022-08-03T17:36:00.867Z,100276.56
2022-08-03T17:39:06.539Z,100279.16
2022-08-03T17:42:30.422Z,100274.78
2022-08-03T17:45:52.077Z,100282.47
2022-08-03T17:48:55.493Z,100285.09
2022-08-03T17:52:17.559Z,100284.13
2022-08-03T17:55:56.382Z,100289.16
2022-08-03T17:58:57.978Z,100281.34
2022-08-03T18:02:47.740Z,100280.38
2022-08-03T18:06:12.869Z,100281.31
2022-08-03T18:10:04.239Z,100290.12
2022-08-03T18:12:47.403Z,100287.91
2022-08-03T18:16:01.777Z,100291.87
2022-08-03T18:19:09.231Z,100296.59
2022-08-03T18:22:13.536Z,100289.88
2022-08-03T18:25:20.952Z,100297.84
2022-08-03T18:28:43.273Z,100307.47
2022-08-03T18:32:03.607Z,100301.34
2022-08-03T18:35:07.775Z,100305.97
2022-08-03T18:38:32.352Z,100314.66
2022-08-03T18:41:36.535Z,100316.09
2022-08-03T18:44:53.238Z,100323.25
2022-08-03T18:48:27.124Z,100325.44
2022-08-03T18:51:43.319Z,100331.47
2022-08-03T18:55:21.438Z,100328.50
2022-08-03T18:58:52.266Z,100332.84
2022-08-03T19:05:24.776Z,100343.06
2022-08-03T19:08:57.712Z,100338.69
2022-08-03T19:12:30.840Z,100346.03
2022-08-03T19:15:51.046Z,100340.59
2022-08-03T19:18:56.936Z,100348.25
2022-08-03T19:22:00.706Z,100356.69
2022-08-03T19:25:05.061Z,100362.69
2022-08-03T19:28:08.789Z,100364.59
2022-08-03T19:31:13.770Z,100363.75
2022-08-03T19:34:18.413Z,100365.66
2022-08-03T19:37:22.182Z,100361.56
2022-08-03T19:40:27.321Z,100373.81
2022-08-03T19:43:53.210Z,100375.19
2022-08-03T19:47:10.064Z,100376.00
2022-08-03T19:50:14.099Z,100373.31
2022-08-03T19:53:17.938Z,100381.19
2022-08-03T19:56:25.049Z,100377.38
2022-08-03T19:59:28.803Z,100380.91
2022-08-03T20:02:33.688Z,100387.66
2022-08-03T20:05:45.003Z,100384.09
2022-08-03T20:08:55.500Z,100386.53
2022-08-03T20:12:02.049Z,100384.84
2022-08-03T20:15:06.004Z,100388.88
2022-08-03T20:18:16.892Z,100388.81
2022-08-03T20:21:24.598Z,100384.69
2022-08-03T20:24:31.832Z,100382.19
2022-08-03T20:31:07.242Z,100378.56
2022-08-03T20:34:10.225Z,100382.34
2022-08-03T20:37:13.101Z,100384.19
2022-08-03T20:40:15.824Z,100380.25
2022-08-03T20:43:19.935Z,100383.09
2022-08-03T20:46:35.294Z,100386.84
2022-08-03T20:49:46.244Z,100383.25
2022-08-03T20:52:50.564Z,100386.16
2022-08-03T20:56:02.154Z,100382.56
2022-08-03T20:59:07.372Z,100377.06
2022-08-03T21:02:30.112Z,100379.72
2022-08-03T21:05:51.007Z,100375.34
2022-08-03T21:09:04.689Z,100374.12
2022-08-03T21:12:11.902Z,100377.50
2022-08-03T21:13:06.881Z,100382.97
2022-08-03T21:13:11.242Z,100337.84
2022-08-03T21:15:59.606Z,100386.66
2022-08-03T21:18:46.511Z,100390.13
2022-08-03T21:21:50.587Z,100385.47
2022-08-03T21:24:56.919Z,100390.56
2022-08-03T21:28:00.883Z,100390.53
2022-08-03T21:31:04.199Z,100393.16
2022-08-03T21:34:07.105Z,100389.59
2022-08-03T21:37:11.859Z,100399.25
2022-08-03T21:40:17.993Z,100401.84
2022-08-03T21:43:21.541Z,100406.13
2022-08-03T21:46:26.726Z,100409.34
2022-08-03T21:49:52.010Z,100406.03
2022-08-03T21:52:57.307Z,100412.41
2022-08-03T21:56:11.423Z,100419.34
2022-08-03T21:59:19.335Z,100423.56
2022-08-03T22:02:27.440Z,100421.56
2022-08-03T22:05:43.660Z,100421.88
2022-08-03T22:08:52.711Z,100425.53
2022-08-03T22:11:55.537Z,100421.94
2022-08-03T22:15:01.925Z,100419.47
2022-08-03T22:18:06.418Z,100423.22
2022-08-03T22:21:14.125Z,100429.31
2022-08-03T22:24:19.745Z,100426.28
2022-08-03T22:27:31.195Z,100430.53
2022-08-03T22:30:35.227Z,100438.25
2022-08-03T22:33:38.481Z,100430.81
2022-08-03T22:36:42.305Z,100438.31
2022-08-03T22:39:45.112Z,100438.22
2022-08-03T22:42:51.934Z,100438.13
2022-08-03T22:46:09.616Z,100436.72
2022-08-03T22:49:16.410Z,100442.31
2022-08-03T22:52:20.252Z,100439.50
2022-08-03T22:55:24.732Z,100438.34
2022-08-03T22:58:27.842Z,100448.59
2022-08-03T23:01:37.105Z,100454.31
2022-08-03T23:04:41.357Z,100446.78
2022-08-03T23:07:45.689Z,100449.31
2022-08-03T23:10:50.209Z,100449.00
2022-08-03T23:13:55.464Z,100457.37
2022-08-03T23:17:03.294Z,100457.72
2022-08-03T23:20:08.919Z,100459.19
2022-08-03T23:23:11.910Z,100455.03
2022-08-03T23:26:17.528Z,100455.88
2022-08-03T23:29:21.744Z,100453.59
2022-08-03T23:32:26.700Z,100463.25
2022-08-03T23:36:18.705Z,100453.31
2022-08-03T23:39:12.449Z,100463.16
2022-08-03T23:42:18.213Z,100465.41
2022-08-03T23:45:21.055Z,100469.34
2022-08-03T23:48:24.780Z,100474.16
2022-08-03T23:52:03.255Z,100475.88
2022-08-03T23:55:24.464Z,100474.25
2022-08-03T23:58:48.506Z,100471.69
